createdAt,value
2022-12-23T00:00:43.776Z,34.45
2022-12-23T00:03:11.179Z,31.85
2022-12-23T00:05:39.348Z,31.85
2022-12-23T00:08:07.782Z,34.17
2022-12-23T00:10:39.535Z,32.27
2022-12-23T00:13:25.992Z,32.50
2022-12-23T00:16:04.393Z,32.17
2022-12-23T00:18:31.580Z,30.30
2022-12-23T00:21:06.644Z,30.92
2022-12-23T00:23:37.357Z,31.13
2022-12-23T00:26:05.611Z,33.90
2022-12-23T00:28:33.141Z,31.95
2022-12-23T00:31:05.901Z,32.15
2022-12-23T00:33:44.666Z,32.10
2022-12-23T00:36:27.723Z,34.07
2022-12-23T00:39:14.013Z,33.30
2022-12-23T00:41:59.818Z,33.92
2022-12-23T00:44:26.895Z,31.25
2022-12-23T00:46:53.825Z,34.38
2022-12-23T00:49:40.328Z,31.37
2022-12-23T00:52:09.463Z,31.45
2022-12-23T00:54:36.635Z,31.17
2022-12-23T00:57:03.926Z,32.25
2022-12-23T00:59:31.525Z,35.95
2022-12-23T01:02:17.429Z,31.70
2022-12-23T01:05:03.379Z,31.45
2022-12-23T01:07:30.322Z,33.35
2022-12-23T01:09:57.192Z,32.83
2022-12-23T01:12:24.108Z,32.63
2022-12-23T01:14:51.261Z,29.90
2022-12-23T01:17:18.762Z,31.10
2022-12-23T01:19:46.718Z,34.30
2022-12-23T01:22:13.697Z,33.00
2022-12-23T01:24:40.687Z,32.65
2022-12-23T01:27:07.598Z,33.00
2022-12-23T01:29:37.586Z,32.83
2022-12-23T01:32:04.819Z,31.80
2022-12-23T01:34:36.671Z,31.65
2022-12-23T01:37:04.948Z,31.62
2022-12-23T01:39:32.029Z,31.77
2022-12-23T01:42:17.606Z,30.77
2022-12-23T01:45:21.630Z,32.30
2022-12-23T01:47:48.423Z,30.75
2022-12-23T01:50:35.441Z,30.50
2022-12-23T01:53:12.238Z,29.77
2022-12-23T01:55:52.155Z,29.90
2022-12-23T01:58:30.525Z,29.83
2022-12-23T02:01:17.707Z,29.00
2022-12-23T02:03:45.959Z,30.00
2022-12-23T02:06:34.181Z,31.43
2022-12-23T02:09:19.518Z,32.47
2022-12-23T02:12:07.955Z,32.85
2022-12-23T02:15:12.575Z,30.80
2022-12-23T02:17:58.068Z,32.95
2022-12-23T02:20:39.348Z,30.43
2022-12-23T02:23:18.246Z,31.27
2022-12-23T02:25:54.411Z,30.15
2022-12-23T02:28:43.934Z,32.35
2022-12-23T02:31:25.062Z,32.42
2022-12-23T02:34:16.633Z,31.90
2022-12-23T02:37:34.137Z,30.50
2022-12-23T02:40:19.447Z,31.85
2022-12-23T02:43:09.078Z,32.60
2022-12-23T02:45:44.348Z,38.42
2022-12-23T02:48:20.196Z,33.20
2022-12-23T02:50:49.032Z,33.22
2022-12-23T02:53:29.621Z,34.88
2022-12-23T02:55:59.282Z,32.85
2022-12-23T02:58:37.723Z,34.83
2022-12-23T03:01:07.217Z,34.10
2022-12-23T03:03:35.729Z,35.40
2022-12-23T03:06:13.475Z,36.50
2022-12-23T03:08:43.659Z,33.20
2022-12-23T03:11:18.318Z,32.28
2022-12-23T03:14:13.120Z,31.97
2022-12-23T03:17:09.350Z,34.67
2022-12-23T03:19:54.610Z,33.25
2022-12-23T03:22:36.232Z,29.65
2022-12-23T03:25:14.121Z,32.65
2022-12-23T03:27:49.838Z,32.50
2022-12-23T03:30:19.710Z,30.15
2022-12-23T03:32:49.471Z,31.73
2022-12-23T03:35:20.152Z,30.90
2022-12-23T03:37:50.541Z,34.20
2022-12-23T03:40:30.267Z,32.40
2022-12-23T03:43:13.975Z,30.50
2022-12-23T03:45:47.978Z,30.80
2022-12-23T03:48:35.754Z,30.40
2022-12-23T03:51:11.711Z,29.25
2022-12-23T03:53:46.730Z,30.17
2022-12-23T03:56:23.097Z,30.27
2022-12-23T03:58:59.375Z,31.87
2022-12-23T04:02:13.802Z,32.05
2022-12-23T04:04:55.778Z,31.60
2022-12-23T04:07:27.679Z,32.13
2022-12-23T04:09:55.696Z,32.55
2022-12-23T04:12:25.145Z,33.42
2022-12-23T04:14:52.042Z,31.25
2022-12-23T04:17:19.851Z,32.67
2022-12-23T04:19:50.866Z,32.53
2022-12-23T04:22:17.694Z,33.85
2022-12-23T04:24:44.646Z,31.42
2022-12-23T04:27:15.509Z,33.15
2022-12-23T04:29:43.834Z,32.78
2022-12-23T04:32:10.924Z,32.60
2022-12-23T04:34:37.812Z,33.22
2022-12-23T04:37:04.664Z,33.60
2022-12-23T04:39:31.572Z,31.35
2022-12-23T04:41:58.487Z,33.22
2022-12-23T04:44:25.329Z,32.10
2022-12-23T04:46:52.353Z,31.40
2022-12-23T04:49:19.528Z,33.35
2022-12-23T04:51:46.692Z,32.80
2022-12-23T04:54:13.691Z,31.70
2022-12-23T04:56:40.587Z,32.20
2022-12-23T04:59:07.450Z,32.80
2022-12-23T05:01:34.455Z,31.27
2022-12-23T05:04:01.436Z,32.60
2022-12-23T05:06:28.339Z,34.15
2022-12-23T05:08:55.240Z,31.60
2022-12-23T05:11:22.227Z,30.92
2022-12-23T05:13:49.074Z,32.03
2022-12-23T05:16:15.987Z,33.63
2022-12-23T05:18:42.916Z,32.55
2022-12-23T05:21:09.861Z,33.37
2022-12-23T05:23:36.839Z,33.30
2022-12-23T05:26:03.917Z,32.88
2022-12-23T05:28:31.279Z,35.30
2022-12-23T05:31:03.786Z,31.70
2022-12-23T05:33:31.401Z,30.33
2022-12-23T05:35:58.778Z,27.40
2022-12-23T05:38:26.375Z,31.12
2022-12-23T05:40:53.329Z,33.47
2022-12-23T05:43:20.811Z,30.33
2022-12-23T05:45:48.909Z,32.87
2022-12-23T05:48:16.120Z,29.35
2022-12-23T05:50:43.121Z,32.33
2022-12-23T05:53:10.202Z,30.20
2022-12-23T05:55:37.095Z,25.48
2022-12-23T05:58:03.986Z,25.47
2022-12-23T06:00:30.954Z,23.30
2022-12-23T06:02:58.018Z,25.58
2022-12-23T06:05:25.086Z,25.25
2022-12-23T06:07:52.590Z,25.30
2022-12-23T06:10:19.983Z,27.97
2022-12-23T06:12:46.867Z,24.87
2022-12-23T06:15:13.776Z,28.12
2022-12-23T06:17:40.627Z,25.80
2022-12-23T06:20:16.283Z,28.27
2022-12-23T06:22:47.065Z,30.80
2022-12-23T06:25:14.070Z,23.87
2022-12-23T06:27:41.070Z,26.30
2022-12-23T06:30:10.334Z,26.27
2022-12-23T06:32:38.971Z,23.62
2022-12-23T06:35:07.696Z,24.63
2022-12-23T06:37:35.168Z,27.85
2022-12-23T06:40:04.831Z,21.80
2022-12-23T06:42:31.811Z,32.90
2022-12-23T06:44:58.705Z,29.95
2022-12-23T06:47:25.531Z,29.83
2022-12-23T06:49:53.182Z,33.53
2022-12-23T06:52:20.202Z,28.87
2022-12-23T06:54:47.139Z,26.83
2022-12-23T06:57:13.984Z,25.30
2022-12-23T06:59:43.383Z,26.70
2022-12-23T07:02:12.176Z,27.17
2022-12-23T07:04:39.334Z,27.08
2022-12-23T07:07:06.259Z,27.27
2022-12-23T07:09:33.639Z,24.67
2022-12-23T07:12:02.815Z,23.93
2022-12-23T07:14:29.780Z,24.98
2022-12-23T07:16:56.662Z,24.95
2022-12-23T07:19:24.457Z,25.80
2022-12-23T07:21:51.528Z,27.45
2022-12-23T07:24:18.480Z,25.50
2022-12-23T07:26:45.473Z,25.40
2022-12-23T07:29:12.424Z,24.58
2022-12-23T07:31:41.049Z,22.50
2022-12-23T07:34:08.783Z,26.37
2022-12-23T07:36:35.729Z,21.73
2022-12-23T07:39:02.627Z,23.87
2022-12-23T07:41:29.602Z,23.65
2022-12-23T07:43:56.535Z,23.35
2022-12-23T07:46:23.397Z,22.75
2022-12-23T07:48:50.368Z,24.83
2022-12-23T07:51:17.471Z,15.68
2022-12-23T07:53:49.045Z,18.92
2022-12-23T07:56:16.154Z,18.67
2022-12-23T07:58:52.394Z,23.70
2022-12-23T08:01:20.310Z,26.17
2022-12-23T08:03:47.824Z,24.25
2022-12-23T08:06:16.429Z,17.80
2022-12-23T08:08:45.620Z,20.58
2022-12-23T08:11:14.523Z,23.55
2022-12-23T08:13:43.421Z,20.43
2022-12-23T08:16:11.026Z,20.17
2022-12-23T08:18:40.703Z,21.40
2022-12-23T08:21:12.949Z,20.35
2022-12-23T08:23:39.811Z,21.02
2022-12-23T08:26:10.214Z,21.20
2022-12-23T08:28:39.068Z,24.37
2022-12-23T08:31:21.128Z,22.70
2022-12-23T08:33:52.041Z,17.73
2022-12-23T08:36:23.351Z,20.55
2022-12-23T08:38:55.399Z,15.90
2022-12-23T08:41:25.171Z,17.50
2022-12-23T08:43:52.781Z,20.17
2022-12-23T08:46:20.174Z,20.58
2022-12-23T08:48:49.720Z,20.65
2022-12-23T08:51:19.694Z,19.00
2022-12-23T08:53:47.688Z,22.75
2022-12-23T08:56:20.434Z,18.45
2022-12-23T08:58:49.788Z,22.25
2022-12-23T09:01:18.822Z,21.00
2022-12-23T09:03:46.402Z,23.90
2022-12-23T09:06:16.675Z,14.87
2022-12-23T09:08:44.286Z,20.62
2022-12-23T09:11:20.147Z,22.95
2022-12-23T09:13:47.119Z,21.48
2022-12-23T09:16:14.372Z,25.03
2022-12-23T09:18:42.051Z,19.08
2022-12-23T09:21:19.917Z,18.70
2022-12-23T09:23:47.338Z,18.83
2022-12-23T09:26:22.460Z,19.90
2022-12-23T09:28:49.735Z,18.37
2022-12-23T09:31:17.203Z,22.13
2022-12-23T09:33:47.020Z,26.98
2022-12-23T09:36:14.007Z,18.55
2022-12-23T09:38:40.984Z,19.20
2022-12-23T09:41:17.902Z,20.37
2022-12-23T09:43:59.967Z,20.27
2022-12-23T09:46:30.635Z,19.20
2022-12-23T09:49:11.194Z,16.33
2022-12-23T09:51:38.521Z,16.37
2022-12-23T09:54:17.429Z,19.00
2022-12-23T09:57:02.476Z,16.27
2022-12-23T09:59:51.112Z,17.83
2022-12-23T10:02:42.353Z,20.10
2022-12-23T10:05:24.339Z,14.15
2022-12-23T10:07:59.047Z,19.60
2022-12-23T10:10:31.904Z,13.85
2022-12-23T10:13:02.031Z,19.95
2022-12-23T10:15:37.477Z,17.75
2022-12-23T10:18:26.831Z,19.08
2022-12-23T10:21:03.868Z,24.10
2022-12-23T10:23:37.286Z,20.58
2022-12-23T10:26:14.478Z,23.60
2022-12-23T10:28:41.543Z,20.33
2022-12-23T10:34:22.745Z,19.13
2022-12-23T10:37:07.002Z,22.42
2022-12-23T10:39:41.109Z,22.85
2022-12-23T10:42:20.440Z,22.90
2022-12-23T10:44:54.128Z,24.58
2022-12-23T10:47:42.665Z,23.87
2022-12-23T10:50:52.497Z,24.17
2022-12-23T10:53:45.955Z,28.55
2022-12-23T10:56:13.709Z,21.27
2022-12-23T10:58:46.754Z,14.93
2022-12-23T11:01:26.221Z,19.70
2022-12-23T11:04:19.330Z,23.42
2022-12-23T11:07:18.288Z,22.87
2022-12-23T11:09:51.202Z,18.90
2022-12-23T11:12:23.590Z,20.00
2022-12-23T11:14:57.809Z,18.83
2022-12-23T11:17:29.995Z,21.55
2022-12-23T11:20:13.174Z,19.70
2022-12-23T11:22:49.408Z,18.70
2022-12-23T11:25:36.137Z,19.60
2022-12-23T11:28:06.189Z,19.37
2022-12-23T11:30:38.669Z,20.85
2022-12-23T11:33:06.690Z,19.70
2022-12-23T11:35:36.971Z,21.87
2022-12-23T11:38:04.394Z,18.15
2022-12-23T11:40:38.203Z,20.00
2022-12-23T11:43:11.973Z,21.58
2022-12-23T11:45:39.162Z,19.83
2022-12-23T11:48:25.773Z,20.95
2022-12-23T11:51:01.270Z,16.35
2022-12-23T11:53:28.912Z,20.03
2022-12-23T11:56:10.698Z,19.73
2022-12-23T11:58:53.307Z,21.12
2022-12-23T12:01:24.233Z,21.62
2022-12-23T12:04:02.792Z,21.12
2022-12-23T12:06:31.527Z,21.93
2022-12-23T12:09:00.145Z,15.55
2022-12-23T12:11:37.972Z,18.77
2022-12-23T12:14:07.502Z,23.33
2022-12-23T12:16:53.046Z,20.33
2022-12-23T12:19:28.807Z,22.47
2022-12-23T12:22:02.185Z,21.62
2022-12-23T12:24:31.086Z,20.90
2022-12-23T12:27:03.527Z,22.30
2022-12-23T12:29:57.331Z,21.87
2022-12-23T12:32:48.887Z,19.50
2022-12-23T12:35:25.744Z,23.17
2022-12-23T12:37:59.524Z,21.30
2022-12-23T12:40:38.832Z,22.60
2022-12-23T12:43:21.069Z,23.90
2022-12-23T12:45:53.135Z,23.17
2022-12-23T12:48:32.028Z,23.95
2022-12-23T12:51:05.751Z,28.90
2022-12-23T12:53:33.812Z,20.73
2022-12-23T12:56:11.002Z,21.55
2022-12-23T12:58:40.270Z,25.70
2022-12-23T13:01:17.366Z,20.50
2022-12-23T13:04:04.433Z,20.90
2022-12-23T13:06:44.780Z,21.02
2022-12-23T13:09:36.344Z,21.27
2022-12-23T13:12:15.025Z,20.37
2022-12-23T13:14:56.492Z,20.75
2022-12-23T13:17:28.838Z,20.48
2022-12-23T13:20:11.054Z,20.95
2022-12-23T13:22:39.985Z,19.65
2022-12-23T13:25:40.389Z,19.87
2022-12-23T13:28:16.875Z,21.83
2022-12-23T13:30:54.404Z,19.08
2022-12-23T13:33:44.875Z,20.30
2022-12-23T13:36:35.527Z,21.73
2022-12-23T13:39:23.219Z,26.73
2022-12-23T13:41:57.398Z,25.20
2022-12-23T13:44:30.359Z,25.10
2022-12-23T13:47:22.630Z,20.67
2022-12-23T13:50:05.883Z,23.10
2022-12-23T13:52:50.972Z,25.07
2022-12-23T13:55:56.602Z,30.25
2022-12-23T13:58:28.395Z,24.92
2022-12-23T14:01:10.750Z,26.48
2022-12-23T14:03:39.132Z,24.67
2022-12-23T14:06:24.227Z,23.00
2022-12-23T14:08:52.700Z,21.30
2022-12-23T14:11:28.523Z,20.17
2022-12-23T14:14:15.011Z,23.23
2022-12-23T14:16:51.130Z,24.27
2022-12-23T14:19:42.628Z,22.80
2022-12-23T14:22:34.613Z,23.40
2022-12-23T14:25:32.116Z,23.10
2022-12-23T14:28:28.111Z,23.27
2022-12-23T14:30:56.265Z,22.62
2022-12-23T14:33:29.199Z,21.60
2022-12-23T14:36:25.492Z,21.80
2022-12-23T14:39:28.997Z,24.52
2022-12-23T14:42:01.728Z,24.20
2022-12-23T14:44:38.098Z,28.48
2022-12-23T14:47:40.553Z,24.33
2022-12-23T14:50:32.739Z,21.30
2022-12-23T14:53:27.039Z,23.20
2022-12-23T14:56:23.016Z,23.05
2022-12-23T15:02:29.458Z,23.17
2022-12-23T15:04:58.684Z,24.67
2022-12-23T15:07:38.772Z,25.52
2022-12-23T15:10:14.667Z,23.45
2022-12-23T15:12:46.721Z,24.07
2022-12-23T15:15:20.067Z,24.70
2022-12-23T15:17:47.529Z,24.98
2022-12-23T15:20:21.345Z,25.50
2022-12-23T15:22:49.356Z,23.77
2022-12-23T15:25:19.045Z,23.07
2022-12-23T15:27:46.357Z,24.08
2022-12-23T15:30:15.693Z,23.90
2022-12-23T15:32:50.785Z,24.33
2022-12-23T15:35:29.250Z,24.12
2022-12-23T15:37:57.414Z,24.17
2022-12-23T15:40:30.587Z,24.63
2022-12-23T15:42:58.250Z,24.80
2022-12-23T15:45:42.378Z,23.87
2022-12-23T15:48:26.255Z,26.15
2022-12-23T15:51:14.771Z,26.10
2022-12-23T15:53:45.753Z,25.37
2022-12-23T15:56:25.983Z,25.75
2022-12-23T15:58:54.653Z,25.23
2022-12-23T16:01:25.464Z,25.10
2022-12-23T16:03:58.480Z,25.30
2022-12-23T16:06:29.756Z,26.42
2022-12-23T16:09:22.868Z,25.80
2022-12-23T16:12:20.338Z,25.85
2022-12-23T16:15:00.619Z,26.15
2022-12-23T16:17:37.286Z,27.17
2022-12-23T16:20:26.399Z,26.55
2022-12-23T16:22:56.632Z,28.45
2022-12-23T16:25:31.728Z,27.70
2022-12-23T16:28:12.992Z,29.33
2022-12-23T16:30:42.792Z,33.23
2022-12-23T16:33:27.966Z,34.00
2022-12-23T16:35:56.000Z,36.63
2022-12-23T16:38:27.952Z,31.77
2022-12-23T16:40:56.733Z,34.72
2022-12-23T16:43:25.228Z,34.10
2022-12-23T16:45:55.229Z,30.80
2022-12-23T16:48:26.674Z,31.05
2022-12-23T16:50:53.979Z,32.70
2022-12-23T16:53:21.353Z,30.37
2022-12-23T16:55:55.341Z,30.30
2022-12-23T16:58:27.076Z,29.45
2022-12-23T17:00:54.131Z,30.05
2022-12-23T17:03:21.437Z,27.42
2022-12-23T17:05:48.784Z,29.27
2022-12-23T17:08:15.820Z,29.57
2022-12-23T17:10:47.018Z,28.55
2022-12-23T17:13:17.819Z,26.92
2022-12-23T17:15:45.298Z,26.85
2022-12-23T17:18:18.770Z,26.17
2022-12-23T17:20:47.976Z,27.63
2022-12-23T17:23:31.156Z,26.98
2022-12-23T17:25:58.855Z,26.62
2022-12-23T17:28:31.424Z,26.15
2022-12-23T17:30:59.000Z,24.90
2022-12-23T17:33:29.547Z,23.90
2022-12-23T17:35:56.729Z,23.83
2022-12-23T17:38:23.819Z,20.85
2022-12-23T17:40:51.336Z,26.80
2022-12-23T17:43:19.040Z,29.05
2022-12-23T17:45:46.054Z,24.20
2022-12-23T17:48:20.578Z,25.58
2022-12-23T17:50:51.814Z,25.77
2022-12-23T17:53:19.706Z,25.45
2022-12-23T17:55:46.946Z,21.87
2022-12-23T17:58:14.376Z,20.37
2022-12-23T18:00:41.800Z,22.35
2022-12-23T18:03:22.621Z,19.45
2022-12-23T18:05:52.970Z,21.02
2022-12-23T18:08:24.256Z,20.92
2022-12-23T18:10:51.235Z,20.80
2022-12-23T18:13:20.264Z,19.75
2022-12-23T18:15:47.859Z,19.60
2022-12-23T18:18:26.408Z,22.37
2022-12-23T18:20:58.438Z,25.98
2022-12-23T18:23:28.647Z,32.13
2022-12-23T18:25:56.901Z,27.75
2022-12-23T18:28:27.077Z,26.52
2022-12-23T18:30:56.860Z,22.65
2022-12-23T18:33:28.622Z,23.58
2022-12-23T18:35:56.177Z,21.20
2022-12-23T18:38:23.246Z,20.12
2022-12-23T18:40:53.937Z,20.90
2022-12-23T18:43:24.158Z,18.95
2022-12-23T18:45:53.523Z,19.12
2022-12-23T18:48:21.502Z,19.17
2022-12-23T18:50:49.030Z,18.42
2022-12-23T18:53:25.301Z,19.62
2022-12-23T18:55:53.830Z,19.25
2022-12-23T18:58:21.497Z,20.15
2022-12-23T19:00:49.311Z,19.67
2022-12-23T19:03:25.043Z,21.80
2022-12-23T19:05:53.954Z,21.40
2022-12-23T19:08:26.817Z,21.00
2022-12-23T19:10:56.036Z,21.37
2022-12-23T19:13:23.773Z,22.17
2022-12-23T19:15:50.785Z,21.60
2022-12-23T19:18:20.515Z,22.58
2022-12-23T19:20:48.826Z,19.70
2022-12-23T19:23:16.151Z,20.35
2022-12-23T19:25:50.772Z,22.97
2022-12-23T19:28:21.874Z,22.75
2022-12-23T19:30:49.281Z,22.15
2022-12-23T19:33:16.363Z,19.50
2022-12-23T19:35:44.176Z,21.50
2022-12-23T19:38:12.468Z,22.37
2022-12-23T19:40:40.724Z,19.33
2022-12-23T19:43:07.788Z,20.90
2022-12-23T19:45:34.712Z,24.48
2022-12-23T19:48:01.752Z,19.10
2022-12-23T19:50:29.202Z,20.53
2022-12-23T19:52:56.592Z,27.15
2022-12-23T19:55:24.090Z,19.87
2022-12-23T19:57:52.321Z,22.25
2022-12-23T20:00:19.597Z,23.17
2022-12-23T20:02:46.815Z,30.57
2022-12-23T20:05:14.321Z,31.92
2022-12-23T20:07:41.559Z,26.67
2022-12-23T20:10:12.100Z,25.98
2022-12-23T20:12:39.981Z,27.65
2022-12-23T20:15:08.130Z,23.17
2022-12-23T20:17:35.128Z,23.42
2022-12-23T20:20:02.328Z,23.50
2022-12-23T20:22:29.267Z,21.67
2022-12-23T20:24:56.539Z,20.02
2022-12-23T20:27:27.804Z,18.43
2022-12-23T20:29:55.557Z,20.65
2022-12-23T20:32:22.579Z,22.35
2022-12-23T20:34:50.279Z,22.48
2022-12-23T20:37:17.727Z,18.87
2022-12-23T20:39:47.518Z,18.23
2022-12-23T20:42:14.679Z,19.17
2022-12-23T20:44:41.615Z,18.27
2022-12-23T20:47:08.676Z,16.85
2022-12-23T20:49:35.819Z,17.58
2022-12-23T20:52:02.909Z,16.93
2022-12-23T20:54:33.716Z,18.10
2022-12-23T20:57:04.132Z,16.35
2022-12-23T20:59:31.199Z,16.75
2022-12-23T21:01:59.489Z,17.25
2022-12-23T21:04:26.880Z,17.00
2022-12-23T21:06:53.857Z,15.80
2022-12-23T21:09:20.644Z,17.10
2022-12-23T21:11:48.123Z,16.35
2022-12-23T21:14:15.749Z,16.60
2022-12-23T21:16:43.033Z,15.90
2022-12-23T21:19:15.910Z,15.93
2022-12-23T21:21:42.753Z,16.80
2022-12-23T21:24:10.651Z,15.88
2022-12-23T21:26:37.671Z,16.20
2022-12-23T21:29:07.000Z,17.17
2022-12-23T21:31:36.891Z,15.90
2022-12-23T21:34:05.060Z,16.98
2022-12-23T21:36:34.561Z,17.05
2022-12-23T21:39:01.707Z,17.35
2022-12-23T21:41:30.742Z,17.37
2022-12-23T21:43:58.849Z,17.12
2022-12-23T21:46:27.327Z,17.00
2022-12-23T21:48:56.269Z,18.23
2022-12-23T21:51:39.122Z,18.08
2022-12-23T21:54:08.257Z,16.83
2022-12-23T21:56:35.834Z,16.75
2022-12-23T21:59:06.013Z,16.70
2022-12-23T22:01:33.608Z,17.50
2022-12-23T22:04:00.602Z,15.40
2022-12-23T22:06:30.841Z,15.30
2022-12-23T22:08:58.676Z,16.90
2022-12-23T22:11:28.265Z,17.27
2022-12-23T22:14:00.371Z,16.92
2022-12-23T22:16:28.652Z,15.80
2022-12-23T22:18:57.097Z,16.00
2022-12-23T22:21:26.279Z,15.52
2022-12-23T22:23:54.254Z,16.55
2022-12-23T22:26:25.652Z,15.15
2022-12-23T22:28:55.498Z,15.43
2022-12-23T22:31:40.344Z,15.30
2022-12-23T22:34:09.119Z,16.25
2022-12-23T22:36:36.491Z,15.82
2022-12-23T22:39:04.945Z,15.55
2022-12-23T22:41:32.369Z,16.33
2022-12-23T22:43:59.849Z,15.50
2022-12-23T22:46:27.967Z,16.20
2022-12-23T22:48:55.269Z,15.30
2022-12-23T22:51:25.239Z,16.12
2022-12-23T22:53:52.665Z,17.02
2022-12-23T22:56:20.795Z,16.70
2022-12-23T22:58:48.417Z,17.67
2022-12-23T23:01:30.512Z,17.65
2022-12-23T23:04:00.491Z,16.40
2022-12-23T23:06:33.618Z,15.52
2022-12-23T23:09:01.374Z,17.37
2022-12-23T23:11:29.101Z,16.80
2022-12-23T23:13:56.488Z,16.73
2022-12-23T23:16:24.779Z,16.10
2022-12-23T23:18:52.782Z,16.23
2022-12-23T23:21:20.421Z,16.70
2022-12-23T23:23:47.800Z,16.92
2022-12-23T23:26:14.961Z,18.35
2022-12-23T23:28:43.047Z,19.02
2022-12-23T23:33:58.444Z,18.70
2022-12-23T23:36:25.664Z,19.33
2022-12-23T23:38:52.649Z,19.37
2022-12-23T23:41:23.421Z,20.17
2022-12-23T23:43:51.504Z,19.70
2022-12-23T23:46:18.992Z,18.40
2022-12-23T23:48:46.116Z,20.30
2022-12-23T23:51:13.069Z,18.87
2022-12-23T23:53:40.784Z,20.20
2022-12-23T23:56:09.008Z,20.05
2022-12-23T23:58:36.640Z,19.40
